sensor_id;sensor_type;location;lat;lon;timestamp;pressure;altitude;pressure_sealevel;temperature;humidity
31331;BME280;34067;39.548;-76.088;2023-01-10T00:00:50;101557.06;;;1.17;42.75
31331;BME280;34067;39.548;-76.088;2023-01-10T00:03:19;101551.16;;;2.27;41.91
31331;BME280;34067;39.548;-76.088;2023-01-10T00:05:46;101549.99;;;1.89;41.99
31331;BME280;34067;39.548;-76.088;2023-01-10T00:08:15;101557.05;;;3.13;41.20
31331;BME280;34067;39.548;-76.088;2023-01-10T00:10:44;101555.99;;;2.67;40.95
31331;BME280;34067;39.548;-76.088;2023-01-10T00:13:14;101557.23;;;2.64;41.02
31331;BME280;34067;39.548;-76.088;2023-01-10T00:15:43;101553.14;;;2.03;41.49
31331;BME280;34067;39.548;-76.088;2023-01-10T00:18:11;101554.66;;;3.19;41.08
31331;BME280;34067;39.548;-76.088;2023-01-10T00:20:39;101553.85;;;3.18;40.67
31331;BME280;34067;39.548;-76.088;2023-01-10T00:23:07;101551.39;;;3.08;40.34
31331;BME280;34067;39.548;-76.088;2023-01-10T00:25:35;101550.40;;;2.76;39.96
31331;BME280;34067;39.548;-76.088;2023-01-10T00:28:04;101545.14;;;4.17;39.45
31331;BME280;34067;39.548;-76.088;2023-01-10T00:30:32;101545.12;;;3.03;40.08
31331;BME280;34067;39.548;-76.088;2023-01-10T00:33:00;101544.51;;;3.65;39.95
31331;BME280;34067;39.548;-76.088;2023-01-10T00:35:29;101546.18;;;3.28;40.40
31331;BME280;34067;39.548;-76.088;2023-01-10T00:37:57;101539.71;;;3.12;40.25
31331;BME280;34067;39.548;-76.088;2023-01-10T00:40:25;101542.64;;;2.84;40.70
31331;BME280;34067;39.548;-76.088;2023-01-10T00:42:53;101543.38;;;2.53;41.16
31331;BME280;34067;39.548;-76.088;2023-01-10T00:45:21;101543.15;;;3.10;40.83
31331;BME280;34067;39.548;-76.088;2023-01-10T00:47:49;101538.82;;;2.55;41.29
31331;BME280;34067;39.548;-76.088;2023-01-10T00:50:17;101544.83;;;1.79;42.52
31331;BME280;34067;39.548;-76.088;2023-01-10T00:52:45;101546.53;;;1.75;42.99
31331;BME280;34067;39.548;-76.088;2023-01-10T00:55:13;101543.50;;;2.04;42.96
31331;BME280;34067;39.548;-76.088;2023-01-10T00:57:41;101537.06;;;2.06;42.98
31331;BME280;34067;39.548;-76.088;2023-01-10T01:00:10;101541.18;;;1.33;43.87
31331;BME280;34067;39.548;-76.088;2023-01-10T01:02:37;101536.81;;;2.25;44.19
31331;BME280;34067;39.548;-76.088;2023-01-10T01:05:06;101543.40;;;1.56;44.70
31331;BME280;34067;39.548;-76.088;2023-01-10T01:07:36;101552.95;;;1.79;44.85
31331;BME280;34067;39.548;-76.088;2023-01-10T01:10:05;101564.25;;;1.47;45.62
31331;BME280;34067;39.548;-76.088;2023-01-10T01:12:33;101553.29;;;0.77;46.79
31331;BME280;34067;39.548;-76.088;2023-01-10T01:15:01;101556.43;;;1.26;46.39
31331;BME280;34067;39.548;-76.088;2023-01-10T01:17:30;101563.82;;;1.07;45.97
31331;BME280;34067;39.548;-76.088;2023-01-10T01:19:58;101571.73;;;0.60;46.47
31331;BME280;34067;39.548;-76.088;2023-01-10T01:22:26;101569.61;;;0.82;46.76
31331;BME280;34067;39.548;-76.088;2023-01-10T01:24:54;101554.87;;;0.46;46.86
31331;BME280;34067;39.548;-76.088;2023-01-10T01:27:23;101557.54;;;1.72;46.26
31331;BME280;34067;39.548;-76.088;2023-01-10T01:29:51;101550.74;;;0.88;46.39
31331;BME280;34067;39.548;-76.088;2023-01-10T01:32:19;101549.60;;;1.11;46.06
31331;BME280;34067;39.548;-76.088;2023-01-10T01:34:47;101546.88;;;1.04;47.17
31331;BME280;34067;39.548;-76.088;2023-01-10T01:37:15;101548.71;;;0.30;48.06
31331;BME280;34067;39.548;-76.088;2023-01-10T01:39:44;101549.33;;;0.70;47.24
31331;BME280;34067;39.548;-76.088;2023-01-10T01:42:21;101551.60;;;0.60;47.85
31331;BME280;34067;39.548;-76.088;2023-01-10T01:45:33;101563.52;;;0.48;47.61
31331;BME280;34067;39.548;-76.088;2023-01-10T01:48:10;101550.37;;;1.54;46.61
31331;BME280;34067;39.548;-76.088;2023-01-10T01:50:45;101547.03;;;0.58;46.58
31331;BME280;34067;39.548;-76.088;2023-01-10T01:53:21;101552.99;;;2.51;45.87
31331;BME280;34067;39.548;-76.088;2023-01-10T01:55:53;101551.24;;;2.03;45.51
31331;BME280;34067;39.548;-76.088;2023-01-10T01:58:28;101551.67;;;0.86;45.82
31331;BME280;34067;39.548;-76.088;2023-01-10T02:01:00;101548.46;;;1.28;45.63
31331;BME280;34067;39.548;-76.088;2023-01-10T02:03:29;101551.56;;;0.52;46.26
31331;BME280;34067;39.548;-76.088;2023-01-10T02:05:59;101549.02;;;1.06;45.96
31331;BME280;34067;39.548;-76.088;2023-01-10T02:08:27;101544.80;;;0.56;46.75
31331;BME280;34067;39.548;-76.088;2023-01-10T02:11:02;101545.19;;;1.96;45.17
31331;BME280;34067;39.548;-76.088;2023-01-10T02:13:33;101539.00;;;1.08;46.61
31331;BME280;34067;39.548;-76.088;2023-01-10T02:16:05;101539.08;;;1.78;45.67
31331;BME280;34067;39.548;-76.088;2023-01-10T02:18:33;101534.62;;;2.01;44.35
31331;BME280;34067;39.548;-76.088;2023-01-10T02:21:13;101553.07;;;1.58;44.84
31331;BME280;34067;39.548;-76.088;2023-01-10T02:24:34;101540.71;;;0.99;46.00
31331;BME280;34067;39.548;-76.088;2023-01-10T02:27:21;101544.01;;;1.54;45.92
31331;BME280;34067;39.548;-76.088;2023-01-10T02:31:13;101548.85;;;0.84;46.41
31331;BME280;34067;39.548;-76.088;2023-01-10T02:33:48;101555.57;;;1.61;45.30
31331;BME280;34067;39.548;-76.088;2023-01-10T02:36:32;101547.35;;;1.67;44.89
31331;BME280;34067;39.548;-76.088;2023-01-10T02:39:10;101564.83;;;1.04;46.22
31331;BME280;34067;39.548;-76.088;2023-01-10T02:41:47;101569.79;;;1.01;45.20
31331;BME280;34067;39.548;-76.088;2023-01-10T02:44:20;101571.59;;;0.55;46.14
31331;BME280;34067;39.548;-76.088;2023-01-10T02:46:51;101573.59;;;0.73;45.92
31331;BME280;34067;39.548;-76.088;2023-01-10T02:49:19;101573.67;;;1.61;44.83
31331;BME280;34067;39.548;-76.088;2023-01-10T02:51:48;101578.56;;;1.04;45.24
31331;BME280;34067;39.548;-76.088;2023-01-10T02:54:17;101582.97;;;0.93;44.96
31331;BME280;34067;39.548;-76.088;2023-01-10T02:56:56;101587.57;;;1.31;44.63
31331;BME280;34067;39.548;-76.088;2023-01-10T02:59:45;101581.14;;;1.91;44.04
31331;BME280;34067;39.548;-76.088;2023-01-10T03:02:32;101579.44;;;2.44;43.20
31331;BME280;34067;39.548;-76.088;2023-01-10T03:05:11;101584.18;;;1.82;44.04
31331;BME280;34067;39.548;-76.088;2023-01-10T03:07:50;101583.79;;;2.36;43.92
31331;BME280;34067;39.548;-76.088;2023-01-10T03:10:24;101578.25;;;2.38;42.40
31331;BME280;34067;39.548;-76.088;2023-01-10T03:12:57;101580.49;;;1.98;43.04
31331;BME280;34067;39.548;-76.088;2023-01-10T03:15:30;101586.52;;;1.68;42.79
31331;BME280;34067;39.548;-76.088;2023-01-10T03:18:03;101586.74;;;2.71;41.92
31331;BME280;34067;39.548;-76.088;2023-01-10T03:20:35;101584.57;;;2.70;42.13
31331;BME280;34067;39.548;-76.088;2023-01-10T03:23:05;101591.25;;;3.30;41.46
31331;BME280;34067;39.548;-76.088;2023-01-10T03:25:35;101603.79;;;0.83;43.36
31331;BME280;34067;39.548;-76.088;2023-01-10T03:28:06;101604.68;;;2.04;42.66
31331;BME280;34067;39.548;-76.088;2023-01-10T03:30:41;101596.65;;;2.68;42.11
31331;BME280;34067;39.548;-76.088;2023-01-10T03:33:11;101597.66;;;2.90;41.42
31331;BME280;34067;39.548;-76.088;2023-01-10T03:35:49;101595.15;;;3.01;41.34
31331;BME280;34067;39.548;-76.088;2023-01-10T03:38:25;101595.93;;;3.05;40.93
31331;BME280;34067;39.548;-76.088;2023-01-10T03:40:58;101596.29;;;3.31;40.36
31331;BME280;34067;39.548;-76.088;2023-01-10T03:43:38;101598.68;;;2.19;42.26
31331;BME280;34067;39.548;-76.088;2023-01-10T03:46:11;101604.01;;;2.03;41.92
31331;BME280;34067;39.548;-76.088;2023-01-10T03:48:42;101613.70;;;1.59;43.11
31331;BME280;34067;39.548;-76.088;2023-01-10T03:51:13;101615.93;;;1.18;43.31
31331;BME280;34067;39.548;-76.088;2023-01-10T03:53:42;101618.09;;;0.94;44.69
31331;BME280;34067;39.548;-76.088;2023-01-10T03:56:13;101626.82;;;1.61;44.31
31331;BME280;34067;39.548;-76.088;2023-01-10T03:58:41;101631.33;;;1.01;44.33
31331;BME280;34067;39.548;-76.088;2023-01-10T04:01:09;101636.85;;;1.56;43.96
31331;BME280;34067;39.548;-76.088;2023-01-10T04:03:36;101636.32;;;2.00;43.71
31331;BME280;34067;39.548;-76.088;2023-01-10T04:06:04;101635.98;;;1.82;43.14
31331;BME280;34067;39.548;-76.088;2023-01-10T04:08:33;101636.39;;;1.22;43.62
31331;BME280;34067;39.548;-76.088;2023-01-10T04:11:01;101632.98;;;1.02;44.76
31331;BME280;34067;39.548;-76.088;2023-01-10T04:13:29;101631.60;;;0.71;45.22
31331;BME280;34067;39.548;-76.088;2023-01-10T04:15:59;101631.68;;;1.79;44.00
31331;BME280;34067;39.548;-76.088;2023-01-10T04:18:27;101628.41;;;1.96;43.91
31331;BME280;34067;39.548;-76.088;2023-01-10T04:20:57;101628.77;;;2.22;43.62
31331;BME280;34067;39.548;-76.088;2023-01-10T04:23:25;101630.44;;;0.89;43.90
31331;BME280;34067;39.548;-76.088;2023-01-10T04:25:53;101629.38;;;0.68;44.23
31331;BME280;34067;39.548;-76.088;2023-01-10T04:28:20;101627.53;;;1.30;43.95
31331;BME280;34067;39.548;-76.088;2023-01-10T04:30:49;101627.36;;;0.94;44.71
31331;BME280;34067;39.548;-76.088;2023-01-10T04:33:17;101625.34;;;1.42;44.66
31331;BME280;34067;39.548;-76.088;2023-01-10T04:35:47;101625.96;;;1.01;44.92
31331;BME280;34067;39.548;-76.088;2023-01-10T04:38:16;101627.70;;;1.53;45.04
31331;BME280;34067;39.548;-76.088;2023-01-10T04:40:51;101630.46;;;1.25;45.69
31331;BME280;34067;39.548;-76.088;2023-01-10T04:43:20;101629.00;;;0.52;46.02
31331;BME280;34067;39.548;-76.088;2023-01-10T04:45:48;101626.63;;;-0.57;48.08
31331;BME280;34067;39.548;-76.088;2023-01-10T04:48:16;101622.53;;;0.53;46.79
31331;BME280;34067;39.548;-76.088;2023-01-10T04:50:49;101622.84;;;-0.07;47.37
31331;BME280;34067;39.548;-76.088;2023-01-10T04:53:17;101625.02;;;-0.18;48.55
31331;BME280;34067;39.548;-76.088;2023-01-10T04:55:46;101627.92;;;0.36;47.28
31331;BME280;34067;39.548;-76.088;2023-01-10T04:58:14;101623.21;;;0.42;46.31
31331;BME280;34067;39.548;-76.088;2023-01-10T05:00:41;101626.91;;;-0.30;49.09
31331;BME280;34067;39.548;-76.088;2023-01-10T05:03:09;101627.09;;;1.49;45.61
31331;BME280;34067;39.548;-76.088;2023-01-10T05:05:38;101626.38;;;0.79;46.97
31331;BME280;34067;39.548;-76.088;2023-01-10T05:08:05;101628.04;;;1.66;45.36
31331;BME280;34067;39.548;-76.088;2023-01-10T05:10:33;101625.77;;;0.30;45.99
31331;BME280;34067;39.548;-76.088;2023-01-10T05:13:01;101629.71;;;0.59;46.34
31331;BME280;34067;39.548;-76.088;2023-01-10T05:15:29;101634.36;;;0.59;46.01
31331;BME280;34067;39.548;-76.088;2023-01-10T05:17:58;101642.23;;;0.76;45.62
31331;BME280;34067;39.548;-76.088;2023-01-10T05:20:27;101644.86;;;0.91;46.18
31331;BME280;34067;39.548;-76.088;2023-01-10T05:22:55;101649.10;;;1.29;46.14
31331;BME280;34067;39.548;-76.088;2023-01-10T05:25:23;101649.66;;;1.04;45.86
31331;BME280;34067;39.548;-76.088;2023-01-10T05:27:50;101648.77;;;0.84;46.19
31331;BME280;34067;39.548;-76.088;2023-01-10T05:30:18;101645.32;;;0.54;45.94
31331;BME280;34067;39.548;-76.088;2023-01-10T05:32:46;101649.27;;;1.41;45.79
31331;BME280;34067;39.548;-76.088;2023-01-10T05:35:14;101645.42;;;0.81;46.70
31331;BME280;34067;39.548;-76.088;2023-01-10T05:37:43;101649.89;;;1.47;45.86
31331;BME280;34067;39.548;-76.088;2023-01-10T05:40:12;101650.02;;;0.65;46.36
31331;BME280;34067;39.548;-76.088;2023-01-10T05:42:40;101645.99;;;0.18;46.34
31331;BME280;34067;39.548;-76.088;2023-01-10T05:45:09;101643.07;;;0.69;46.18
31331;BME280;34067;39.548;-76.088;2023-01-10T05:47:37;101644.44;;;1.90;45.37
31331;BME280;34067;39.548;-76.088;2023-01-10T05:50:06;101642.76;;;0.46;46.32
31331;BME280;34067;39.548;-76.088;2023-01-10T05:52:35;101639.93;;;1.43;45.39
31331;BME280;34067;39.548;-76.088;2023-01-10T05:55:04;101643.45;;;2.09;44.18
31331;BME280;34067;39.548;-76.088;2023-01-10T05:57:33;101649.44;;;1.74;43.80
31331;BME280;34067;39.548;-76.088;2023-01-10T06:00:02;101648.05;;;1.67;43.73
31331;BME280;34067;39.548;-76.088;2023-01-10T06:03:10;101645.17;;;2.27;42.59
31331;BME280;34067;39.548;-76.088;2023-01-10T06:05:38;101644.33;;;2.43;43.20
31331;BME280;34067;39.548;-76.088;2023-01-10T06:08:07;101644.51;;;2.59;43.06
31331;BME280;34067;39.548;-76.088;2023-01-10T06:10:35;101647.62;;;2.22;42.47
31331;BME280;34067;39.548;-76.088;2023-01-10T06:13:04;101651.82;;;2.88;42.36
31331;BME280;34067;39.548;-76.088;2023-01-10T06:15:33;101657.24;;;2.40;42.40
31331;BME280;34067;39.548;-76.088;2023-01-10T06:18:02;101667.73;;;2.20;42.54
31331;BME280;34067;39.548;-76.088;2023-01-10T06:20:29;101674.38;;;2.69;42.33
31331;BME280;34067;39.548;-76.088;2023-01-10T06:22:58;101677.82;;;2.18;42.91
31331;BME280;34067;39.548;-76.088;2023-01-10T06:25:26;101672.63;;;2.33;43.34
31331;BME280;34067;39.548;-76.088;2023-01-10T06:27:54;101671.48;;;2.19;43.47
31331;BME280;34067;39.548;-76.088;2023-01-10T06:30:22;101675.20;;;2.15;43.20
31331;BME280;34067;39.548;-76.088;2023-01-10T06:32:50;101674.94;;;2.15;43.25
31331;BME280;34067;39.548;-76.088;2023-01-10T06:35:18;101672.77;;;2.50;43.25
31331;BME280;34067;39.548;-76.088;2023-01-10T06:37:45;101672.12;;;2.52;43.03
31331;BME280;34067;39.548;-76.088;2023-01-10T06:40:13;101669.49;;;2.01;44.01
31331;BME280;34067;39.548;-76.088;2023-01-10T06:42:41;101663.88;;;2.28;43.57
31331;BME280;34067;39.548;-76.088;2023-01-10T06:45:11;101673.23;;;1.99;43.68
31331;BME280;34067;39.548;-76.088;2023-01-10T06:47:39;101672.15;;;2.20;44.12
31331;BME280;34067;39.548;-76.088;2023-01-10T06:50:08;101672.59;;;1.78;45.15
31331;BME280;34067;39.548;-76.088;2023-01-10T06:52:36;101676.09;;;2.72;44.02
31331;BME280;34067;39.548;-76.088;2023-01-10T06:55:05;101684.17;;;2.20;44.01
31331;BME280;34067;39.548;-76.088;2023-01-10T06:57:33;101688.36;;;2.22;43.40
31331;BME280;34067;39.548;-76.088;2023-01-10T07:00:02;101690.52;;;1.88;43.33
31331;BME280;34067;39.548;-76.088;2023-01-10T07:02:29;101697.24;;;2.63;43.05
31331;BME280;34067;39.548;-76.088;2023-01-10T07:04:58;101692.30;;;2.14;43.06
31331;BME280;34067;39.548;-76.088;2023-01-10T07:07:26;101689.89;;;1.79;43.44
31331;BME280;34067;39.548;-76.088;2023-01-10T07:09:54;101686.74;;;1.48;43.42
31331;BME280;34067;39.548;-76.088;2023-01-10T07:12:23;101686.78;;;1.70;43.52
31331;BME280;34067;39.548;-76.088;2023-01-10T07:14:51;101692.86;;;1.96;43.35
31331;BME280;34067;39.548;-76.088;2023-01-10T07:17:19;101692.39;;;1.36;43.52
31331;BME280;34067;39.548;-76.088;2023-01-10T07:19:47;101696.64;;;1.48;43.21
31331;BME280;34067;39.548;-76.088;2023-01-10T07:22:15;101699.14;;;1.66;43.13
31331;BME280;34067;39.548;-76.088;2023-01-10T07:24:43;101707.22;;;1.39;43.10
31331;BME280;34067;39.548;-76.088;2023-01-10T07:27:12;101710.03;;;1.91;43.43
31331;BME280;34067;39.548;-76.088;2023-01-10T07:29:40;101713.90;;;2.03;42.95
31331;BME280;34067;39.548;-76.088;2023-01-10T07:32:08;101714.69;;;2.00;42.59
31331;BME280;34067;39.548;-76.088;2023-01-10T07:34:36;101716.56;;;1.34;43.64
31331;BME280;34067;39.548;-76.088;2023-01-10T07:37:05;101717.41;;;1.54;43.49
31331;BME280;34067;39.548;-76.088;2023-01-10T07:39:33;101718.58;;;1.60;45.07
31331;BME280;34067;39.548;-76.088;2023-01-10T07:42:00;101720.01;;;0.71;43.89
31331;BME280;34067;39.548;-76.088;2023-01-10T07:44:28;101727.63;;;0.85;43.81
31331;BME280;34067;39.548;-76.088;2023-01-10T07:46:55;101735.28;;;1.51;43.24
31331;BME280;34067;39.548;-76.088;2023-01-10T07:49:23;101730.42;;;1.80;43.67
31331;BME280;34067;39.548;-76.088;2023-01-10T07:51:51;101728.88;;;1.14;43.62
31331;BME280;34067;39.548;-76.088;2023-01-10T07:54:20;101728.51;;;2.02;43.61
31331;BME280;34067;39.548;-76.088;2023-01-10T07:56:48;101726.67;;;1.20;44.21
31331;BME280;34067;39.548;-76.088;2023-01-10T07:59:15;101727.86;;;2.42;43.30
31331;BME280;34067;39.548;-76.088;2023-01-10T08:01:43;101724.71;;;1.68;43.05
31331;BME280;34067;39.548;-76.088;2023-01-10T08:04:12;101727.99;;;1.67;43.20
31331;BME280;34067;39.548;-76.088;2023-01-10T08:06:39;101726.35;;;1.62;43.49
31331;BME280;34067;39.548;-76.088;2023-01-10T08:09:07;101725.70;;;1.90;44.09
31331;BME280;34067;39.548;-76.088;2023-01-10T08:11:36;101729.61;;;1.02;43.86
31331;BME280;34067;39.548;-76.088;2023-01-10T08:14:04;101731.32;;;1.35;44.13
31331;BME280;34067;39.548;-76.088;2023-01-10T08:16:32;101734.81;;;1.26;43.94
31331;BME280;34067;39.548;-76.088;2023-01-10T08:19:00;101737.84;;;1.93;43.92
31331;BME280;34067;39.548;-76.088;2023-01-10T08:21:28;101747.93;;;1.92;44.03
31331;BME280;34067;39.548;-76.088;2023-01-10T08:23:56;101749.04;;;1.20;43.94
31331;BME280;34067;39.548;-76.088;2023-01-10T08:26:24;101751.87;;;1.74;44.42
31331;BME280;34067;39.548;-76.088;2023-01-10T08:28:52;101755.69;;;1.50;44.80
31331;BME280;34067;39.548;-76.088;2023-01-10T08:31:20;101750.65;;;1.61;45.06
31331;BME280;34067;39.548;-76.088;2023-01-10T08:33:49;101748.45;;;0.53;45.42
31331;BME280;34067;39.548;-76.088;2023-01-10T08:36:18;101753.77;;;1.41;45.26
31331;BME280;34067;39.548;-76.088;2023-01-10T08:38:46;101758.57;;;1.38;45.30
31331;BME280;34067;39.548;-76.088;2023-01-10T08:41:15;101760.95;;;1.24;45.03
31331;BME280;34067;39.548;-76.088;2023-01-10T08:43:43;101755.71;;;1.51;45.78
31331;BME280;34067;39.548;-76.088;2023-01-10T08:46:11;101748.21;;;1.49;45.53
31331;BME280;34067;39.548;-76.088;2023-01-10T08:48:39;101736.78;;;0.80;46.06
31331;BME280;34067;39.548;-76.088;2023-01-10T08:51:08;101745.78;;;1.65;45.42
31331;BME280;34067;39.548;-76.088;2023-01-10T08:53:38;101753.88;;;1.67;44.53
31331;BME280;34067;39.548;-76.088;2023-01-10T08:56:07;101764.96;;;1.56;44.96
31331;BME280;34067;39.548;-76.088;2023-01-10T08:58:35;101761.42;;;0.62;46.28
31331;BME280;34067;39.548;-76.088;2023-01-10T09:01:04;101759.62;;;-0.03;46.53
31331;BME280;34067;39.548;-76.088;2023-01-10T09:03:32;101756.59;;;0.90;45.93
31331;BME280;34067;39.548;-76.088;2023-01-10T09:06:01;101759.13;;;0.84;45.63
31331;BME280;34067;39.548;-76.088;2023-01-10T09:08:29;101766.57;;;-0.15;46.97
31331;BME280;34067;39.548;-76.088;2023-01-10T09:10:58;101770.76;;;0.38;46.81
31331;BME280;34067;39.548;-76.088;2023-01-10T09:13:26;101772.00;;;-0.17;46.69
31331;BME280;34067;39.548;-76.088;2023-01-10T09:15:54;101770.15;;;0.28;45.99
31331;BME280;34067;39.548;-76.088;2023-01-10T09:18:22;101772.01;;;0.96;45.39
31331;BME280;34067;39.548;-76.088;2023-01-10T09:20:51;101777.80;;;0.85;46.16
31331;BME280;34067;39.548;-76.088;2023-01-10T09:23:21;101774.93;;;1.04;46.61
31331;BME280;34067;39.548;-76.088;2023-01-10T09:25:50;101774.39;;;0.51;46.53
31331;BME280;34067;39.548;-76.088;2023-01-10T09:28:19;101778.44;;;0.39;47.24
31331;BME280;34067;39.548;-76.088;2023-01-10T09:30:47;101770.35;;;1.17;47.21
31331;BME280;34067;39.548;-76.088;2023-01-10T09:33:16;101768.96;;;0.88;47.33
31331;BME280;34067;39.548;-76.088;2023-01-10T09:35:44;101761.88;;;1.08;47.82
31331;BME280;34067;39.548;-76.088;2023-01-10T09:38:14;101759.06;;;1.22;47.67
31331;BME280;34067;39.548;-76.088;2023-01-10T09:40:59;101756.88;;;0.89;48.07
31331;BME280;34067;39.548;-76.088;2023-01-10T09:43:38;101756.68;;;0.81;46.68
31331;BME280;34067;39.548;-76.088;2023-01-10T09:46:16;101759.08;;;1.28;45.03
31331;BME280;34067;39.548;-76.088;2023-01-10T09:48:54;101766.63;;;-0.10;47.00
31331;BME280;34067;39.548;-76.088;2023-01-10T09:51:32;101773.37;;;-0.21;47.33
31331;BME280;34067;39.548;-76.088;2023-01-10T09:54:04;101772.17;;;-0.19;47.72
31331;BME280;34067;39.548;-76.088;2023-01-10T09:56:33;101770.05;;;-0.34;48.06
31331;BME280;34067;39.548;-76.088;2023-01-10T09:59:02;101773.66;;;0.03;47.81
31331;BME280;34067;39.548;-76.088;2023-01-10T10:01:33;101765.87;;;0.01;48.34
31331;BME280;34067;39.548;-76.088;2023-01-10T10:04:11;101773.65;;;0.51;48.06
31331;BME280;34067;39.548;-76.088;2023-01-10T10:06:43;101786.72;;;0.20;47.33
31331;BME280;34067;39.548;-76.088;2023-01-10T10:09:13;101800.19;;;0.05;47.85
31331;BME280;34067;39.548;-76.088;2023-01-10T10:11:54;101803.72;;;0.25;47.24
31331;BME280;34067;39.548;-76.088;2023-01-10T10:14:36;101814.77;;;0.52;47.64
31331;BME280;34067;39.548;-76.088;2023-01-10T10:17:23;101813.64;;;0.20;47.52
31331;BME280;34067;39.548;-76.088;2023-01-10T10:20:03;101818.04;;;0.42;47.88
31331;BME280;34067;39.548;-76.088;2023-01-10T10:22:44;101813.02;;;-0.41;48.40
31331;BME280;34067;39.548;-76.088;2023-01-10T10:25:39;101812.80;;;0.36;48.10
31331;BME280;34067;39.548;-76.088;2023-01-10T10:28:31;101823.93;;;0.04;48.38
31331;BME280;34067;39.548;-76.088;2023-01-10T10:31:07;101817.08;;;0.24;48.16
31331;BME280;34067;39.548;-76.088;2023-01-10T10:33:55;101821.25;;;-0.13;48.11
31331;BME280;34067;39.548;-76.088;2023-01-10T10:36:38;101826.39;;;-0.32;48.50
31331;BME280;34067;39.548;-76.088;2023-01-10T10:39:14;101831.20;;;-0.07;47.98
31331;BME280;34067;39.548;-76.088;2023-01-10T10:41:47;101834.81;;;0.07;48.45
31331;BME280;34067;39.548;-76.088;2023-01-10T10:44:31;101839.99;;;0.58;47.82
31331;BME280;34067;39.548;-76.088;2023-01-10T10:47:00;101842.66;;;-0.63;48.85
31331;BME280;34067;39.548;-76.088;2023-01-10T10:49:35;101837.09;;;0.40;48.22
31331;BME280;34067;39.548;-76.088;2023-01-10T10:52:13;101842.76;;;0.53;48.27
31331;BME280;34067;39.548;-76.088;2023-01-10T10:54:44;101836.44;;;-0.07;48.93
31331;BME280;34067;39.548;-76.088;2023-01-10T10:57:12;101837.94;;;0.35;48.42
31331;BME280;34067;39.548;-76.088;2023-01-10T10:59:41;101836.56;;;0.53;49.17
31331;BME280;34067;39.548;-76.088;2023-01-10T11:02:21;101829.32;;;0.10;48.86
31331;BME280;34067;39.548;-76.088;2023-01-10T11:04:54;101826.47;;;0.68;48.34
31331;BME280;34067;39.548;-76.088;2023-01-10T11:07:23;101822.16;;;0.75;49.50
31331;BME280;34067;39.548;-76.088;2023-01-10T11:09:52;101829.71;;;0.30;49.22
31331;BME280;34067;39.548;-76.088;2023-01-10T11:12:29;101843.93;;;-0.22;48.96
31331;BME280;34067;39.548;-76.088;2023-01-10T11:14:58;101839.84;;;0.09;49.34
31331;BME280;34067;39.548;-76.088;2023-01-10T11:17:30;101833.37;;;-0.58;49.54
31331;BME280;34067;39.548;-76.088;2023-01-10T11:20:00;101843.22;;;-0.24;48.96
31331;BME280;34067;39.548;-76.088;2023-01-10T11:22:36;101849.08;;;-0.94;50.23
31331;BME280;34067;39.548;-76.088;2023-01-10T11:25:14;101844.15;;;-0.81;50.09
31331;BME280;34067;39.548;-76.088;2023-01-10T11:27:48;101839.00;;;-0.16;49.31
31331;BME280;34067;39.548;-76.088;2023-01-10T11:30:20;101844.48;;;0.34;48.54
31331;BME280;34067;39.548;-76.088;2023-01-10T11:32:51;101850.14;;;0.46;48.67
31331;BME280;34067;39.548;-76.088;2023-01-10T11:35:23;101841.19;;;0.11;49.20
31331;BME280;34067;39.548;-76.088;2023-01-10T11:38:01;101835.08;;;0.36;49.00
31331;BME280;34067;39.548;-76.088;2023-01-10T11:40:30;101839.55;;;0.68;48.46
31331;BME280;34067;39.548;-76.088;2023-01-10T11:43:00;101846.18;;;-0.13;48.80
31331;BME280;34067;39.548;-76.088;2023-01-10T11:45:53;101840.20;;;0.47;47.42
31331;BME280;34067;39.548;-76.088;2023-01-10T11:48:24;101842.10;;;0.80;46.78
31331;BME280;34067;39.548;-76.088;2023-01-10T11:50:54;101851.01;;;0.86;46.68
31331;BME280;34067;39.548;-76.088;2023-01-10T11:53:35;101854.18;;;0.27;47.42
31331;BME280;34067;39.548;-76.088;2023-01-10T11:56:06;101849.43;;;0.24;47.84
31331;BME280;34067;39.548;-76.088;2023-01-10T11:58:37;101833.85;;;0.55;47.59
31331;BME280;34067;39.548;-76.088;2023-01-10T12:01:25;101838.40;;;1.12;47.25
31331;BME280;34067;39.548;-76.088;2023-01-10T12:03:54;101845.03;;;0.10;47.71
31331;BME280;34067;39.548;-76.088;2023-01-10T12:06:22;101849.62;;;0.44;48.02
31331;BME280;34067;39.548;-76.088;2023-01-10T12:08:51;101852.52;;;0.26;47.83
31331;BME280;34067;39.548;-76.088;2023-01-10T12:11:26;101854.20;;;1.10;48.09
31331;BME280;34067;39.548;-76.088;2023-01-10T12:13:56;101855.47;;;0.44;48.68
31331;BME280;34067;39.548;-76.088;2023-01-10T12:16:27;101858.44;;;0.02;52.53
31331;BME280;34067;39.548;-76.088;2023-01-10T12:18:57;101865.59;;;0.72;53.45
31331;BME280;34067;39.548;-76.088;2023-01-10T12:21:30;101872.32;;;1.26;53.51
31331;BME280;34067;39.548;-76.088;2023-01-10T12:24:04;101869.26;;;0.79;53.39
31331;BME280;34067;39.548;-76.088;2023-01-10T12:26:34;101871.23;;;1.12;53.03
31331;BME280;34067;39.548;-76.088;2023-01-10T12:29:07;101878.37;;;0.44;53.93
31331;BME280;34067;39.548;-76.088;2023-01-10T12:31:39;101887.90;;;-0.19;53.33
31331;BME280;34067;39.548;-76.088;2023-01-10T12:34:14;101888.66;;;1.34;53.18
31331;BME280;34067;39.548;-76.088;2023-01-10T12:36:50;101884.36;;;1.24;52.85
31331;BME280;34067;39.548;-76.088;2023-01-10T12:39:23;101885.17;;;1.19;52.07
31331;BME280;34067;39.548;-76.088;2023-01-10T12:42:07;101885.76;;;0.95;52.57
31331;BME280;34067;39.548;-76.088;2023-01-10T12:45:05;101889.70;;;1.17;52.79
31331;BME280;34067;39.548;-76.088;2023-01-10T12:47:51;101890.46;;;1.01;53.93
31331;BME280;34067;39.548;-76.088;2023-01-10T12:50:23;101889.35;;;0.91;54.83
31331;BME280;34067;39.548;-76.088;2023-01-10T12:52:58;101895.57;;;1.06;55.19
31331;BME280;34067;39.548;-76.088;2023-01-10T12:55:29;101903.13;;;0.46;56.54
31331;BME280;34067;39.548;-76.088;2023-01-10T12:58:02;101906.95;;;1.22;57.07
31331;BME280;34067;39.548;-76.088;2023-01-10T13:00:35;101912.40;;;1.23;56.44